Time;durP1;ratioP1;P1;durP2;ratioP2;P2;SDS_P1;SDS_P2;PMS_P1;PMS_P2;Temp;Humidity;BMP_temperature;BMP_pressure;BME280_temperature;BME280_humidity;BME280_pressure;Samples;Min_cycle;Max_cycle;Signal;HPM_P1;HPM_P2
2022/08/13 00:00:59;;;;;;;3.75;2.47;;;;;;;26.12;54.74;100924.31;5074628;28;20487;-75
2022/08/13 00:03:29;;;;;;;4.43;2.72;;;;;;;26.13;54.70;100928.75;5090149;28;20040;-75
2022/08/13 00:06:25;;;;;;;4.15;2.47;;;;;;;26.15;53.95;100942.13;5058837;28;20516;-75
2022/08/13 00:08:57;;;;;;;2.90;2.47;;;;;;;26.17;53.87;100960.94;5054492;28;20044;-75
2022/08/13 00:14:34;;;;;;;3.28;2.58;;;;;;;26.21;53.64;100970.41;5055286;28;20372;-75
2022/08/13 00:17:12;;;;;;;3.75;2.50;;;;;;;26.22;53.43;100966.69;5053289;28;20045;-75
2022/08/13 00:19:43;;;;;;;3.95;2.50;;;;;;;26.24;53.80;100967.34;5046724;28;20496;-75
2022/08/13 00:22:22;;;;;;;2.67;1.88;;;;;;;26.25;53.93;100985.31;5054314;28;20390;-75
2022/08/13 00:24:56;;;;;;;3.60;2.60;;;;;;;26.26;53.58;100970.75;5054300;28;20056;-75
2022/08/13 00:27:28;;;;;;;3.83;2.70;;;;;;;26.27;54.04;100943.44;5053954;28;20049;-75
2022/08/13 00:30:17;;;;;;;3.15;2.60;;;;;;;26.28;53.84;100922.56;5073048;28;20056;-75
2022/08/13 00:33:12;;;;;;;5.13;2.30;;;;;;;26.29;53.54;100899.81;5087790;28;20044;-75
2022/08/13 00:35:42;;;;;;;3.83;2.15;;;;;;;26.28;53.10;100896.25;5072476;28;20056;-75
2022/08/13 00:38:15;;;;;;;3.53;2.00;;;;;;;26.30;53.16;100885.25;5074054;28;20052;-75
2022/08/13 00:40:50;;;;;;;3.85;2.28;;;;;;;26.30;52.95;100883.38;5073274;28;20057;-74
2022/08/13 00:43:25;;;;;;;3.58;2.50;;;;;;;26.31;52.95;100876.09;5056876;28;20052;-74
2022/08/13 00:45:54;;;;;;;3.38;2.50;;;;;;;26.32;52.86;100864.19;5073426;28;20075;-74
2022/08/13 00:51:29;;;;;;;3.60;2.38;;;;;;;26.32;52.37;100867.75;5070000;28;20049;-74
2022/08/13 00:54:17;;;;;;;2.50;1.92;;;;;;;26.34;52.39;100887.44;5053836;28;20049;-74
2022/08/13 00:56:45;;;;;;;3.03;2.05;;;;;;;26.35;52.32;100891.00;5053481;28;20052;-74
2022/08/13 00:59:14;;;;;;;4.93;2.97;;;;;;;26.34;52.27;100903.72;5053285;28;20403;-74
2022/08/13 01:01:45;;;;;;;4.47;2.20;;;;;;;26.37;52.39;100913.34;5053600;28;20399;-75
2022/08/13 01:04:21;;;;;;;3.25;1.90;;;;;;;26.37;52.09;100902.50;5053620;28;20476;-74
2022/08/13 01:06:56;;;;;;;3.30;2.17;;;;;;;26.37;52.29;100911.53;5033496;28;20053;-75
2022/08/13 01:09:32;;;;;;;3.58;2.03;;;;;;;26.37;52.49;100900.66;5032567;28;20046;-74
2022/08/13 01:12:20;;;;;;;4.15;2.08;;;;;;;26.39;52.00;100908.63;5033334;28;20060;-74
2022/08/13 01:14:56;;;;;;;2.88;2.30;;;;;;;26.40;52.20;100918.44;5033231;28;20404;-75
2022/08/13 01:17:27;;;;;;;2.97;1.73;;;;;;;26.41;51.87;100913.84;5033015;28;20493;-74
2022/08/13 01:20:21;;;;;;;4.55;2.42;;;;;;;26.41;52.07;100901.13;5051760;28;20044;-74
2022/08/13 01:23:04;;;;;;;3.03;2.47;;;;;;;26.42;51.90;100899.28;5053300;28;20040;-74
2022/08/13 01:25:37;;;;;;;2.80;2.00;;;;;;;26.42;51.95;100891.97;5051973;28;20045;-74
2022/08/13 01:28:23;;;;;;;2.95;2.33;;;;;;;26.43;51.86;100884.69;5053300;28;20056;-75
2022/08/13 01:30:51;;;;;;;3.78;2.17;;;;;;;26.43;51.97;100885.53;5052196;28;20057;-74
2022/08/13 01:33:19;;;;;;;2.50;2.10;;;;;;;26.43;51.83;100896.38;5052853;28;20411;-75
2022/08/13 01:35:49;;;;;;;2.83;1.95;;;;;;;26.44;51.89;100908.91;5057824;28;20495;-74
2022/08/13 01:38:22;;;;;;;3.13;1.90;;;;;;;26.45;51.83;100897.06;5073507;28;20053;-75
2022/08/13 01:40:54;;;;;;;2.75;2.25;;;;;;;26.45;51.80;100885.38;5072862;28;20052;-75
2022/08/13 01:43:28;;;;;;;5.20;2.03;;;;;;;26.45;51.92;100902.50;5072799;28;20514;-74
2022/08/13 01:45:59;;;;;;;3.55;1.90;;;;;;;26.46;51.72;100903.38;5073208;28;20495;-74
2022/08/13 01:51:32;;;;;;;2.47;2.00;;;;;;;26.47;51.99;100905.91;5072829;28;20068;-74
2022/08/13 01:54:09;;;;;;;2.72;2.05;;;;;;;26.48;51.86;100906.72;5092155;28;20055;-74
2022/08/13 01:56:59;;;;;;;3.97;2.17;;;;;;;26.48;51.67;100894.00;5077264;28;20041;-74
2022/08/13 01:59:29;;;;;;;3.35;2.30;;;;;;;26.48;51.74;100869.56;5076407;28;20049;-75
2022/08/13 02:02:17;;;;;;;3.15;2.35;;;;;;;26.49;51.99;100859.56;5076657;28;20051;-75
2022/08/13 02:05:03;;;;;;;4.90;2.30;;;;;;;26.49;51.96;100848.69;5071195;28;20048;-75
2022/08/13 02:07:43;;;;;;;3.78;2.08;;;;;;;26.49;52.02;100852.25;5057201;28;20068;-75
2022/08/13 02:10:29;;;;;;;2.40;1.90;;;;;;;26.49;51.97;100870.41;5055747;28;20408;-75
2022/08/13 02:12:59;;;;;;;3.35;1.90;;;;;;;26.48;51.91;100885.84;5056454;28;20041;-75
2022/08/13 02:15:27;;;;;;;3.95;2.00;;;;;;;26.49;51.97;100892.97;5056735;28;20044;-75
2022/08/13 02:18:17;;;;;;;2.80;1.98;;;;;;;26.50;52.02;100897.41;5057006;28;20052;-74
2022/08/13 02:20:54;;;;;;;2.60;2.10;;;;;;;26.50;51.61;100921.84;5055260;28;20036;-75
2022/08/13 02:23:31;;;;;;;3.72;2.15;;;;;;;26.52;51.73;100935.22;5056625;28;20044;-75
2022/08/13 02:26:19;;;;;;;3.10;1.85;;;;;;;26.51;51.98;100933.53;5056789;28;20052;-75
2022/08/13 02:28:54;;;;;;;2.60;2.03;;;;;;;26.51;51.99;100920.81;5056116;28;20373;-75
2022/08/13 02:31:23;;;;;;;2.95;1.88;;;;;;;26.52;51.91;100922.50;5056130;28;20055;-75
2022/08/13 02:34:11;;;;;;;4.63;2.33;;;;;;;26.52;51.67;100925.19;5055361;28;20431;-75
2022/08/13 02:36:47;;;;;;;2.40;2.00;;;;;;;26.53;51.89;100901.59;5056391;28;20538;-75
2022/08/13 02:39:36;;;;;;;2.63;2.05;;;;;;;26.53;51.80;100885.31;5055974;28;20048;-75
2022/08/13 02:42:11;;;;;;;2.92;2.00;;;;;;;26.52;51.95;100878.22;5055803;28;20060;-75
2022/08/13 02:44:49;;;;;;;2.70;1.75;;;;;;;26.52;51.91;100887.19;5055823;28;20041;-75
2022/08/13 02:47:19;;;;;;;3.00;2.10;;;;;;;26.53;51.93;100878.00;5056086;28;20045;-75
2022/08/13 02:50:07;;;;;;;3.80;2.13;;;;;;;26.53;52.13;100885.31;5054912;28;20051;-75
2022/08/13 02:52:39;;;;;;;4.20;1.88;;;;;;;26.53;52.06;100878.00;5063834;28;20048;-75
2022/08/13 02:55:28;;;;;;;2.45;2.08;;;;;;;26.52;51.85;100861.91;5076260;28;20051;-75
2022/08/13 02:58:01;;;;;;;3.35;2.17;;;;;;;26.53;51.83;100861.72;5074516;28;20052;-75
2022/08/13 03:00:30;;;;;;;4.72;1.90;;;;;;;26.52;52.13;100861.91;5074414;28;20044;-75
2022/08/13 03:03:03;;;;;;;4.88;2.30;;;;;;;26.52;52.32;100883.63;5075399;28;20059;-75
2022/08/13 03:05:37;;;;;;;5.63;2.40;;;;;;;26.52;52.19;100880.91;5063769;28;20041;-75
2022/08/13 03:08:27;;;;;;;3.22;1.85;;;;;;;26.51;52.03;100882.78;5055346;28;20048;-75
2022/08/13 03:11:09;;;;;;;3.05;2.08;;;;;;;26.52;52.09;100894.50;5055538;28;20048;-75
2022/08/13 03:13:43;;;;;;;2.80;2.28;;;;;;;26.52;52.23;100892.63;5054558;28;20056;-75
2022/08/13 03:16:18;;;;;;;2.55;1.85;;;;;;;26.52;51.96;100887.19;5053512;28;20053;-75
2022/08/13 03:18:46;;;;;;;2.90;2.20;;;;;;;26.53;52.08;100890.75;5055440;28;20049;-75
2022/08/13 03:21:29;;;;;;;3.38;2.17;;;;;;;26.51;51.99;100890.94;5053345;28;20048;-75
2022/08/13 03:24:12;;;;;;;2.10;1.70;;;;;;;26.52;51.94;100891.78;5055412;28;20045;-75
2022/08/13 03:26:51;;;;;;;2.28;1.70;;;;;;;26.53;51.96;100899.75;5053938;28;20052;-75
2022/08/13 03:29:23;;;;;;;3.17;1.90;;;;;;;26.53;52.11;100904.31;5055310;28;20041;-74
2022/08/13 03:32:10;;;;;;;3.17;1.92;;;;;;;26.52;51.98;100900.78;5055589;28;20045;-75
2022/08/13 03:34:40;;;;;;;4.13;2.30;;;;;;;26.54;52.32;100914.19;5054917;28;20480;-75
2022/08/13 03:37:10;;;;;;;3.40;2.17;;;;;;;26.54;52.23;100911.47;5067430;28;20047;-75
2022/08/13 03:39:40;;;;;;;2.47;2.00;;;;;;;26.53;52.33;100898.91;5075381;28;20050;-75
2022/08/13 03:42:09;;;;;;;2.92;2.10;;;;;;;26.53;52.49;100902.44;5074637;28;20393;-75
2022/08/13 03:44:41;;;;;;;5.22;2.20;;;;;;;26.54;52.27;100906.03;5075069;28;20048;-75
2022/08/13 03:47:08;;;;;;;2.97;2.10;;;;;;;26.53;52.22;100916.03;5073445;28;20044;-75
2022/08/13 03:49:55;;;;;;;3.60;1.65;;;;;;;26.54;52.07;100912.31;5074713;28;20052;-75
2022/08/13 03:52:23;;;;;;;5.05;2.17;;;;;;;26.55;51.88;100913.16;5074658;28;20044;-75
2022/08/13 03:55:01;;;;;;;3.85;2.00;;;;;;;26.54;52.21;100916.91;5075003;28;20399;-75
2022/08/13 03:57:29;;;;;;;3.65;2.20;;;;;;;26.53;52.11;100910.59;5074580;28;20157;-75
2022/08/13 04:00:17;;;;;;;3.10;2.08;;;;;;;26.54;52.00;100911.47;5074368;28;20045;-75
2022/08/13 04:02:44;;;;;;;3.42;2.63;;;;;;;26.55;52.28;100913.16;5073653;28;20048;-75
2022/08/13 04:05:16;;;;;;;4.43;2.38;;;;;;;26.55;52.26;100908.56;5067475;28;20044;-75
2022/08/13 04:08:04;;;;;;;3.95;2.50;;;;;;;26.54;52.17;100922.34;5052607;28;20064;-75
2022/08/13 04:10:42;;;;;;;2.88;2.03;;;;;;;26.55;52.25;100929.44;5054741;28;20480;-75
2022/08/13 04:13:19;;;;;;;4.25;2.40;;;;;;;26.55;52.23;100930.28;5052964;28;20060;-75
2022/08/13 04:16:27;;;;;;;5.43;2.53;;;;;;;26.55;52.37;100921.28;5053513;28;20071;-75
2022/08/13 04:19:01;;;;;;;3.05;2.50;;;;;;;26.55;52.28;100911.28;5054168;28;20045;-75
2022/08/13 04:21:33;;;;;;;;;;;;;;;26.55;52.33;100911.28;5054232;28;20056;-75
2022/08/13 04:24:04;;;;;;;4.05;2.92;;;;;;;26.55;52.19;100919.44;5049779;28;20292;-75
2022/08/13 04:26:32;;;;;;;3.92;2.03;;;;;;;26.56;52.58;100921.09;5053012;28;20461;-75
2022/08/13 04:29:04;;;;;;;3.50;2.75;;;;;;;26.55;52.44;100921.28;5053822;28;20049;-74
2022/08/13 04:31:34;;;;;;;3.75;2.60;;;;;;;26.56;52.45;100914.84;5054442;28;20045;-74
2022/08/13 04:34:15;;;;;;;4.25;2.75;;;;;;;26.56;52.43;100907.53;5054463;28;20049;-74
2022/08/13 04:37:04;;;;;;;6.63;2.33;;;;;;;26.55;52.27;100900.41;5054240;28;20406;-74
2022/08/13 04:39:32;;;;;;;2.88;2.28;;;;;;;26.56;52.54;100903.97;5053844;28;20060;-74
2022/08/13 04:42:20;;;;;;;5.70;2.80;;;;;;;26.57;52.36;100908.38;5054018;28;20514;-74
2022/08/13 04:45:05;;;;;;;3.42;2.70;;;;;;;26.56;52.37;100895.84;5053873;28;20403;-74
2022/08/13 04:47:40;;;;;;;3.88;2.55;;;;;;;26.56;52.41;100895.84;5068272;28;20056;-72
2022/08/13 04:50:10;;;;;;;3.90;2.47;;;;;;;26.56;52.43;100906.69;5053730;28;20401;-72
2022/08/13 04:52:39;;;;;;;3.28;2.38;;;;;;;26.56;52.42;100882.25;5053860;28;20048;-72
2022/08/13 04:55:11;;;;;;;3.05;2.50;;;;;;;26.55;52.45;100888.72;5073402;28;20372;-72
2022/08/13 04:57:41;;;;;;;4.43;2.55;;;;;;;26.55;52.48;100894.16;5072189;28;20044;-72
2022/08/13 05:00:25;;;;;;;4.03;2.80;;;;;;;26.55;52.65;100903.13;5072632;28;20071;-72
2022/08/13 05:02:52;;;;;;;4.18;2.47;;;;;;;26.56;52.65;100904.81;5073549;28;20056;-72
2022/08/13 05:05:24;;;;;;;3.33;2.60;;;;;;;26.56;52.46;100906.69;5065640;28;20047;-72
2022/08/13 05:07:52;;;;;;;3.28;2.97;;;;;;;26.56;52.62;100904.81;5053284;28;20041;-73
2022/08/13 05:10:20;;;;;;;3.33;2.95;;;;;;;26.56;52.62;100882.25;5051920;28;20060;-73
2022/08/13 05:13:01;;;;;;;5.43;2.83;;;;;;;26.56;52.60;100882.25;5053258;28;20049;-73
2022/08/13 05:15:29;;;;;;;7.07;3.00;;;;;;;26.56;52.58;100876.81;5053356;28;20045;-73
2022/08/13 05:18:18;;;;;;;5.07;3.65;;;;;;;26.56;52.51;100880.38;5052924;28;20049;-73
2022/08/13 05:20:56;;;;;;;4.65;3.45;;;;;;;26.54;52.46;100887.03;5053067;28;20048;-73
2022/08/13 05:23:24;;;;;;;4.30;3.63;;;;;;;26.50;52.57;100889.25;5050678;28;20047;-73
2022/08/13 05:26:12;;;;;;;4.40;3.40;;;;;;;26.44;52.38;100903.50;5053493;28;20041;-73
2022/08/13 05:29:06;;;;;;;4.43;3.25;;;;;;;26.39;52.41;100905.91;5053664;28;20067;-73
2022/08/13 05:31:34;;;;;;;7.10;4.22;;;;;;;26.37;52.46;100907.94;5052259;28;20049;-73
2022/08/13 05:34:22;;;;;;;4.95;3.90;;;;;;;26.33;52.63;100912.03;5053232;28;20045;-73
2022/08/13 05:36:52;;;;;;;4.47;4.07;;;;;;;26.31;52.89;100905.94;5056847;28;20480;-73
2022/08/13 05:39:40;;;;;;;4.75;4.25;;;;;;;26.26;52.82;100898.31;5073028;28;20060;-72
2022/08/13 05:42:14;;;;;;;4.95;3.92;;;;;;;26.21;52.72;100897.13;5073100;28;20059;-72
2022/08/13 05:44:44;;;;;;;4.13;3.28;;;;;;;26.20;52.52;100892.75;5073496;28;20053;-72
2022/08/13 05:47:14;;;;;;;;;;;;;;;26.18;52.38;100892.94;5073575;28;20052;-72
2022/08/13 05:49:43;;;;;;;3.95;3.20;;;;;;;26.17;52.09;100893.09;5073185;28;19920;-72
2022/08/13 05:52:34;;;;;;;4.97;3.25;;;;;;;26.18;52.14;100887.50;5073457;28;20049;-72
2022/08/13 05:55:15;;;;;;;4.13;2.90;;;;;;;26.18;52.35;100892.09;5071878;28;20056;-72
2022/08/13 05:58:04;;;;;;;3.08;2.63;;;;;;;26.19;52.35;100893.78;5073146;28;20049;-72
2022/08/13 06:03:39;;;;;;;3.83;3.17;;;;;;;26.18;51.95;100881.25;5071599;28;20061;-73
2022/08/13 06:06:28;;;;;;;4.25;2.83;;;;;;;26.18;51.99;100881.25;5056066;28;20049;-73
2022/08/13 06:09:04;;;;;;;3.75;3.35;;;;;;;26.18;51.98;100886.66;5053054;28;20049;-72
2022/08/13 06:11:43;;;;;;;5.68;4.80;;;;;;;26.12;52.01;100885.47;5052790;28;20041;-72
2022/08/13 06:14:35;;;;;;;3.60;2.78;;;;;;;26.02;52.22;100885.69;5053317;28;20049;-72
2022/08/13 06:17:06;;;;;;;2.92;2.53;;;;;;;26.01;51.95;100889.44;5052784;28;20369;-72
2022/08/13 06:19:43;;;;;;;4.85;3.13;;;;;;;25.99;51.71;100883.31;5051569;28;20060;-72
2022/08/13 06:22:19;;;;;;;3.45;2.70;;;;;;;25.92;51.13;100882.31;5053290;28;20049;-72
2022/08/13 06:24:47;;;;;;;2.97;2.28;;;;;;;25.82;50.99;100876.25;5044854;28;20064;-72
2022/08/13 06:27:24;;;;;;;3.35;2.03;;;;;;;25.73;51.36;100883.53;5052909;28;20048;-72
2022/08/13 06:30:17;;;;;;;2.75;2.17;;;;;;;25.70;51.10;100885.75;5053122;28;20041;-72
2022/08/13 06:33:03;;;;;;;2.70;2.05;;;;;;;25.71;51.12;100887.44;5053226;28;20048;-72
2022/08/13 06:36:02;;;;;;;3.28;2.10;;;;;;;25.71;51.50;100895.56;5052690;28;20048;-72
2022/08/13 06:38:40;;;;;;;2.88;2.13;;;;;;;25.66;51.39;100887.97;5054639;28;20056;-72
2022/08/13 06:41:19;;;;;;;2.85;1.70;;;;;;;25.63;51.39;100882.88;5054518;28;20049;-72
2022/08/13 06:43:52;;;;;;;3.97;2.20;;;;;;;25.61;51.66;100880.34;5056570;28;20045;-72
2022/08/13 06:46:30;;;;;;;4.15;2.25;;;;;;;25.54;51.18;100886.63;5055732;28;20045;-72
2022/08/13 06:49:00;;;;;;;2.72;1.70;;;;;;;25.49;51.47;100889.00;5055770;28;20380;-72
2022/08/13 06:51:31;;;;;;;3.00;1.67;;;;;;;25.49;51.71;100889.00;5055969;28;20044;-72
2022/08/13 06:54:08;;;;;;;3.30;1.98;;;;;;;25.49;51.27;100889.00;5062732;28;20055;-72
2022/08/13 06:56:57;;;;;;;2.72;1.80;;;;;;;25.45;51.03;100883.06;5075540;28;20051;-72
2022/08/13 06:59:46;;;;;;;3.85;1.80;;;;;;;25.48;51.16;100892.72;5076099;28;20053;-72
2022/08/13 07:02:35;;;;;;;2.00;1.33;;;;;;;25.48;51.12;100899.00;5075843;28;20384;-72
2022/08/13 07:05:04;;;;;;;2.53;1.75;;;;;;;25.50;51.14;100896.13;5070159;28;20056;-72
2022/08/13 07:07:45;;;;;;;2.47;1.48;;;;;;;25.52;50.97;100900.34;5055889;28;20048;-72
2022/08/13 07:10:16;;;;;;;3.13;1.55;;;;;;;25.52;50.48;100891.34;5054132;28;20057;-72
2022/08/13 07:12:43;;;;;;;2.90;1.95;;;;;;;25.47;50.17;100888.31;5055639;28;20048;-72
2022/08/13 07:15:16;;;;;;;2.40;1.95;;;;;;;25.43;50.45;100892.38;5055645;28;20045;-72
2022/08/13 07:18:05;;;;;;;2.97;1.95;;;;;;;25.43;50.61;100882.38;5055325;28;20477;-72
2022/08/13 07:20:35;;;;;;;2.90;1.90;;;;;;;25.39;50.50;100881.03;5055152;28;20049;-72
2022/08/13 07:23:05;;;;;;;2.83;2.00;;;;;;;25.37;50.69;100869.53;5054042;28;20060;-72
2022/08/13 07:25:55;;;;;;;3.33;1.80;;;;;;;25.38;51.23;100873.94;5051629;28;20048;-72
2022/08/13 07:28:30;;;;;;;3.35;1.92;;;;;;;25.36;50.95;100865.97;5055189;28;20393;-73
2022/08/13 07:31:15;;;;;;;4.45;2.40;;;;;;;25.33;50.90;100865.47;5055180;28;20049;-71
2022/08/13 07:33:51;;;;;;;4.05;2.40;;;;;;;25.27;51.10;100869.69;5055453;28;20049;-71
2022/08/13 07:36:30;;;;;;;2.90;2.00;;;;;;;25.21;51.38;100875.81;5054043;28;20045;-71
2022/08/13 07:39:02;;;;;;;4.32;2.10;;;;;;;25.19;51.92;100885.09;5066879;28;20055;-71
2022/08/13 07:41:45;;;;;;;3.10;1.92;;;;;;;25.18;52.25;100886.13;5074779;28;20040;-71
2022/08/13 07:44:31;;;;;;;3.33;2.08;;;;;;;25.17;51.48;100893.41;5075249;28;20399;-71
2022/08/13 07:47:20;;;;;;;2.75;1.95;;;;;;;25.17;51.41;100885.28;5074734;28;20051;-71
2022/08/13 07:49:56;;;;;;;3.63;2.13;;;;;;;25.14;50.40;100881.03;5074486;28;20048;-72
2022/08/13 07:52:27;;;;;;;3.75;2.20;;;;;;;25.10;50.52;100878.84;5073816;28;20059;-72
2022/08/13 07:54:55;;;;;;;3.33;2.00;;;;;;;25.09;51.34;100883.41;5074474;28;20059;-72
2022/08/13 07:57:25;;;;;;;2.83;2.00;;;;;;;25.09;50.56;100879.88;5074606;28;20052;-72
2022/08/13 08:00:09;;;;;;;2.20;1.88;;;;;;;25.09;50.75;100882.56;5073146;28;20503;-72
2022/08/13 08:02:44;;;;;;;4.07;2.30;;;;;;;25.11;50.67;100886.78;5075053;28;20055;-72
2022/08/13 08:05:14;;;;;;;2.50;2.10;;;;;;;25.14;50.59;100877.50;5066343;28;20044;-72
2022/08/13 08:07:50;;;;;;;4.68;2.28;;;;;;;25.19;50.94;100890.53;5054699;28;20048;-72
2022/08/13 08:10:36;;;;;;;4.47;2.20;;;;;;;25.20;50.41;100882.25;5052905;28;20511;-72
2022/08/13 08:13:03;;;;;;;3.08;1.90;;;;;;;25.23;50.49;100883.75;5054877;28;20048;-72
2022/08/13 08:15:35;;;;;;;3.20;2.15;;;;;;;25.26;50.30;100886.13;5054371;28;20460;-72
2022/08/13 08:18:23;;;;;;;4.05;2.47;;;;;;;25.27;50.34;100885.09;5054728;28;20048;-73
2022/08/13 08:21:05;;;;;;;3.30;2.38;;;;;;;25.30;50.29;100885.63;5053708;28;20044;-73
2022/08/13 08:24:04;;;;;;;3.13;2.38;;;;;;;25.33;50.10;100898.00;5039380;28;20076;-72
2022/08/13 08:26:48;;;;;;;3.45;2.10;;;;;;;25.33;49.81;100896.13;5052635;28;20056;-72
2022/08/13 08:29:16;;;;;;;2.92;1.90;;;;;;;25.33;48.79;100892.56;5053279;28;20060;-72
2022/08/13 08:31:48;;;;;;;2.33;1.75;;;;;;;25.32;48.80;100893.56;5053150;28;20053;-71
2022/08/13 08:34:29;;;;;;;2.55;1.92;;;;;;;25.35;48.97;100893.22;5052440;28;20059;-72
2022/08/13 08:36:57;;;;;;;3.00;2.20;;;;;;;25.33;49.11;100893.41;5054156;28;20048;-72
2022/08/13 08:42:38;;;;;;;2.78;2.05;;;;;;;25.35;49.61;100887.81;5053337;28;20049;-72
2022/08/13 08:45:20;;;;;;;3.08;2.20;;;;;;;25.39;49.47;100883.75;5053395;28;20052;-72
2022/08/13 08:47:52;;;;;;;3.25;2.22;;;;;;;25.42;49.62;100894.25;5053375;28;20040;-75
2022/08/13 08:50:24;;;;;;;2.50;2.00;;;;;;;25.44;48.80;100888.66;5053107;28;20041;-73
2022/08/13 08:56:04;;;;;;;2.67;2.20;;;;;;;25.42;49.26;100882.56;5033746;28;20052;-73
2022/08/13 08:58:41;;;;;;;3.05;2.28;;;;;;;25.39;49.70;100890.00;5033800;28;20056;-72
2022/08/13 09:01:13;;;;;;;2.95;2.08;;;;;;;25.40;49.77;100882.72;5033564;28;20049;-72
2022/08/13 09:03:42;;;;;;;3.90;2.33;;;;;;;25.40;49.20;100880.00;5033487;28;20060;-72
2022/08/13 09:06:28;;;;;;;5.20;3.00;;;;;;;25.38;48.97;100871.22;5049889;28;20412;-72
2022/08/13 09:09:17;;;;;;;2.95;2.28;;;;;;;25.35;48.57;100872.41;5053609;28;20049;-72
2022/08/13 09:11:52;;;;;;;5.25;2.47;;;;;;;25.32;48.92;100885.44;5043512;28;20052;-72
2022/08/13 09:14:26;;;;;;;3.50;1.95;;;;;;;25.33;49.01;100873.59;5051493;28;20048;-73
2022/08/13 09:16:57;;;;;;;2.65;2.10;;;;;;;25.34;48.98;100869.88;5047088;28;20038;-72
2022/08/13 09:19:27;;;;;;;3.53;2.28;;;;;;;25.35;47.52;100872.41;5033843;28;20049;-72
2022/08/13 09:22:22;;;;;;;2.80;2.08;;;;;;;25.36;47.52;100879.53;5033352;28;20045;-72
2022/08/13 09:24:58;;;;;;;2.90;2.20;;;;;;;25.38;47.45;100868.50;5033023;28;20049;-72
2022/08/13 09:27:30;;;;;;;2.50;1.90;;;;;;;25.38;47.54;100876.63;5048203;28;20037;-72
2022/08/13 09:30:18;;;;;;;3.78;2.38;;;;;;;25.40;47.72;100880.00;5051900;28;20057;-74
2022/08/13 09:32:57;;;;;;;4.00;2.08;;;;;;;25.42;46.30;100885.28;5067845;28;20048;-73
2022/08/13 09:35:28;;;;;;;2.40;2.15;;;;;;;25.42;44.82;100880.69;5052898;28;20061;-74
2022/08/13 09:38:06;;;;;;;4.80;2.05;;;;;;;25.43;44.80;100876.13;5053067;28;20044;-74
2022/08/13 09:41:04;;;;;;;1.98;1.52;;;;;;;25.44;44.31;100875.09;5031500;28;20057;-74
2022/08/13 09:43:45;;;;;;;2.60;2.08;;;;;;;25.44;43.66;100878.66;5021433;28;20053;-74
2022/08/13 09:46:23;;;;;;;2.38;1.85;;;;;;;25.46;42.90;100873.09;5033186;28;20481;-74
2022/08/13 09:48:57;;;;;;;2.40;1.80;;;;;;;25.46;43.42;100876.63;5032819;28;20053;-74
2022/08/13 09:51:30;;;;;;;3.38;2.10;;;;;;;25.47;43.40;100872.91;5032675;28;20058;-74
2022/08/13 09:54:18;;;;;;;2.60;1.88;;;;;;;25.48;43.95;100866.47;5045546;28;20045;-74
2022/08/13 09:56:47;;;;;;;4.72;2.00;;;;;;;25.49;44.50;100867.31;5032857;28;20400;-74
2022/08/13 09:59:20;;;;;;;4.97;1.83;;;;;;;25.49;43.97;100862.75;5032711;28;20409;-74
2022/08/13 10:02:09;;;;;;;4.25;2.35;;;;;;;25.50;43.30;100863.59;5032580;28;20057;-72
2022/08/13 10:04:42;;;;;;;4.30;1.90;;;;;;;25.50;43.49;100869.84;5035136;28;20054;-72
2022/08/13 10:07:14;;;;;;;5.35;1.90;;;;;;;25.52;43.22;100858.81;5052480;28;20044;-72
2022/08/13 10:09:49;;;;;;;3.92;2.10;;;;;;;25.54;43.55;100875.78;5053091;28;20041;-73
2022/08/13 10:13:40;;;;;;;2.67;1.80;;;;;;;25.54;43.15;100873.91;5052705;28;20052;-72
2022/08/13 10:16:21;;;;;;;2.83;1.95;;;;;;;25.55;43.52;100867.47;5056206;28;20037;-73
2022/08/13 10:18:50;;;;;;;2.63;1.80;;;;;;;25.57;43.12;100865.44;5038683;28;20071;-72
2022/08/13 10:21:17;;;;;;;2.70;1.80;;;;;;;25.60;42.83;100866.94;5056543;28;20060;-73
2022/08/13 10:23:48;;;;;;;3.78;2.05;;;;;;;25.61;42.77;100861.38;5056204;28;20052;-72
2022/08/13 10:26:18;;;;;;;2.90;1.70;;;;;;;25.62;42.16;100860.34;5055954;28;20049;-73
2022/08/13 10:28:48;;;;;;;2.75;2.00;;;;;;;25.62;42.21;100846.78;5051038;28;20056;-72
2022/08/13 10:31:17;;;;;;;2.28;1.70;;;;;;;25.64;42.10;100846.59;5055990;28;20052;-72
2022/08/13 10:34:05;;;;;;;2.75;2.10;;;;;;;25.64;42.73;100843.88;5055991;28;20049;-72
2022/08/13 10:36:34;;;;;;;2.92;2.00;;;;;;;25.66;42.28;100833.72;5056263;28;20056;-71
2022/08/13 10:39:05;;;;;;;5.63;2.30;;;;;;;25.68;42.33;100838.97;5056145;28;20500;-72
2022/08/13 10:41:43;;;;;;;3.65;2.33;;;;;;;25.68;41.98;100831.69;5056025;28;20056;-72
2022/08/13 10:44:30;;;;;;;3.25;1.85;;;;;;;25.70;43.05;100821.53;5056413;28;20045;-73
2022/08/13 10:47:01;;;;;;;2.55;2.00;;;;;;;25.72;42.50;100824.88;5056541;28;20041;-73
2022/08/13 10:49:31;;;;;;;2.78;2.10;;;;;;;25.74;43.28;100827.44;5056061;28;20056;-75
2022/08/13 10:52:02;;;;;;;3.33;1.98;;;;;;;25.75;42.87;100821.00;5054762;28;20057;-75
2022/08/13 10:54:34;;;;;;;3.83;2.20;;;;;;;25.77;42.84;100818.97;5056223;28;20045;-75
2022/08/13 10:57:07;;;;;;;2.45;1.90;;;;;;;25.77;42.88;100816.25;5074184;28;20067;-75
2022/08/13 10:59:43;;;;;;;3.75;2.42;;;;;;;25.78;41.98;100817.97;5075809;28;20044;-76
2022/08/13 11:02:12;;;;;;;3.22;2.05;;;;;;;25.78;41.78;100823.41;5076298;28;20052;-75
2022/08/13 11:04:47;;;;;;;2.50;2.10;;;;;;;25.80;41.84;100813.19;5072370;28;20049;-75
2022/08/13 11:07:20;;;;;;;2.70;1.92;;;;;;;25.80;41.88;100808.63;5055745;28;20067;-74
2022/08/13 11:09:48;;;;;;;2.53;1.92;;;;;;;25.81;42.96;100815.75;5055852;28;20052;-75
2022/08/13 11:12:18;;;;;;;2.72;1.80;;;;;;;25.83;43.04;100810.16;5055409;28;20056;-73
2022/08/13 11:14:50;;;;;;;;;;;;;;;25.83;41.99;100821.84;5055832;28;20111;-75
2022/08/13 11:17:18;;;;;;;3.00;2.08;;;;;;;25.85;42.15;100808.13;5088226;28;19927;-75
2022/08/13 11:20:13;;;;;;;4.03;2.15;;;;;;;25.85;41.83;100814.38;5054631;28;20049;-75
2022/08/13 11:22:50;;;;;;;4.00;2.10;;;;;;;25.86;40.32;100807.09;5055776;28;20396;-74
2022/08/13 11:25:19;;;;;;;4.40;2.10;;;;;;;25.86;40.74;100807.09;5055356;28;20045;-74
2022/08/13 11:28:14;;;;;;;2.63;2.10;;;;;;;25.87;40.70;100806.06;5054745;28;20029;-73
2022/08/13 11:30:50;;;;;;;2.60;1.80;;;;;;;25.86;40.68;100807.94;5054412;28;20051;-74
2022/08/13 11:33:19;;;;;;;4.90;2.35;;;;;;;25.87;41.14;100801.47;5055689;28;20056;-73
2022/08/13 11:36:07;;;;;;;3.30;2.33;;;;;;;25.89;41.20;100793.19;5054961;28;20056;-74
2022/08/13 11:38:36;;;;;;;3.47;2.33;;;;;;;25.90;41.49;100784.03;5054586;28;20044;-75
2022/08/13 11:41:05;;;;;;;3.35;2.30;;;;;;;25.92;41.73;100781.97;5071204;28;20060;-73
2022/08/13 11:43:37;;;;;;;;;;;;;;;25.93;41.66;100786.38;5075392;28;20044;-74
2022/08/13 11:46:25;;;;;;;3.55;2.00;;;;;;;25.95;41.99;100787.03;5072076;28;20366;-75
2022/08/13 11:48:52;;;;;;;3.15;2.25;;;;;;;25.97;42.56;100789.56;5054564;28;20041;-73
2022/08/13 11:51:38;;;;;;;2.45;2.05;;;;;;;25.99;42.54;100784.81;5054909;28;20049;-73
2022/08/13 11:54:24;;;;;;;3.33;2.30;;;;;;;26.00;42.45;100784.63;5053467;28;20049;-73
2022/08/13 11:57:01;;;;;;;3.13;1.90;;;;;;;26.01;42.36;100786.34;5054800;28;20041;-73
2022/08/13 11:59:28;;;;;;;3.97;2.17;;;;;;;26.03;43.27;100787.00;5054679;28;20045;-73
2022/08/13 12:02:09;;;;;;;2.10;1.83;;;;;;;26.04;44.13;100795.97;5054764;28;20400;-74
2022/08/13 12:04:45;;;;;;;4.30;2.45;;;;;;;26.04;43.55;100785.13;5053869;28;20049;-74
2022/08/13 12:07:24;;;;;;;4.03;2.10;;;;;;;26.05;43.77;100782.25;5054566;28;20053;-74
2022/08/13 12:09:53;;;;;;;3.00;2.03;;;;;;;26.06;43.24;100783.09;5054279;28;20049;-75
2022/08/13 12:12:26;;;;;;;4.07;2.70;;;;;;;26.06;43.16;100774.97;5052872;28;20495;-74
2022/08/13 12:14:59;;;;;;;2.63;1.80;;;;;;;26.07;43.36;100776.66;5053778;28;20434;-73
2022/08/13 12:17:27;;;;;;;3.03;1.90;;;;;;;26.08;43.37;100772.91;5054354;28;20064;-74
2022/08/13 12:20:21;;;;;;;4.00;2.22;;;;;;;26.08;43.39;100767.47;5053930;28;20049;-74
2022/08/13 12:22:57;;;;;;;2.35;1.88;;;;;;;26.09;43.72;100763.72;5052932;28;20045;-72
2022/08/13 12:25:28;;;;;;;6.18;2.72;;;;;;;26.09;44.34;100764.59;5053042;28;20060;-74
2022/08/13 12:28:20;;;;;;;3.40;2.20;;;;;;;26.09;43.97;100761.88;5053949;28;20067;-75
2022/08/13 12:30:58;;;;;;;3.10;1.90;;;;;;;26.11;44.00;100769.84;5050650;28;20492;-74